createdAt,value
2022-10-17T00:00:47.222Z,16.07
2022-10-17T00:03:13.629Z,16.29
2022-10-17T00:05:42.279Z,16.15
2022-10-17T00:08:09.894Z,16.35
2022-10-17T00:10:36.487Z,16.36
2022-10-17T00:13:03.411Z,16.34
2022-10-17T00:15:29.911Z,16.34
2022-10-17T00:17:56.419Z,16.39
2022-10-17T00:20:22.977Z,16.44
2022-10-17T00:22:49.444Z,16.47
2022-10-17T00:25:16.087Z,16.35
2022-10-17T00:27:42.722Z,16.49
2022-10-17T00:30:13.573Z,16.48
2022-10-17T00:32:40.312Z,16.48
2022-10-17T00:35:08.069Z,16.48
2022-10-17T00:37:34.822Z,16.45
2022-10-17T00:40:01.304Z,16.43
2022-10-17T00:42:28.392Z,16.46
2022-10-17T00:45:06.780Z,16.41
2022-10-17T00:47:35.198Z,16.34
2022-10-17T00:52:35.230Z,16.23
2022-10-17T00:55:24.429Z,16.23
2022-10-17T00:57:51.553Z,16.21
2022-10-17T01:00:19.040Z,16.26
2022-10-17T01:02:46.236Z,16.19
2022-10-17T01:05:14.208Z,16.16
2022-10-17T01:07:42.251Z,16.19
2022-10-17T01:10:10.358Z,16.19
2022-10-17T01:12:39.601Z,16.16
2022-10-17T01:15:11.400Z,16.12
2022-10-17T01:18:00.027Z,16.08
2022-10-17T01:20:47.776Z,16.02
2022-10-17T01:23:43.736Z,15.99
2022-10-17T01:26:28.588Z,15.96
2022-10-17T01:29:19.838Z,15.91
2022-10-17T01:32:13.926Z,15.83
2022-10-17T01:35:08.968Z,15.79
2022-10-17T01:37:47.921Z,15.45
2022-10-17T01:40:25.390Z,15.65
2022-10-17T01:42:59.446Z,15.53
2022-10-17T01:45:37.230Z,15.59
2022-10-17T01:48:08.907Z,15.56
2022-10-17T01:50:41.464Z,15.43
2022-10-17T01:53:16.410Z,15.39
2022-10-17T01:55:46.400Z,15.40
2022-10-17T01:58:48.072Z,15.43
2022-10-17T02:01:15.854Z,15.44
2022-10-17T02:03:45.144Z,15.47
2022-10-17T02:06:11.934Z,15.45
2022-10-17T02:08:47.249Z,15.48
2022-10-17T02:11:17.662Z,15.46
2022-10-17T02:14:02.241Z,15.46
2022-10-17T02:16:42.810Z,15.40
2022-10-17T02:19:24.723Z,15.40
2022-10-17T02:21:54.269Z,15.36
2022-10-17T02:24:37.897Z,15.28
2022-10-17T02:27:12.005Z,15.23
2022-10-17T02:29:55.430Z,15.19
2022-10-17T02:32:26.424Z,15.11
2022-10-17T02:34:56.765Z,15.04
2022-10-17T02:37:25.956Z,14.98
2022-10-17T02:39:55.125Z,14.97
2022-10-17T02:42:23.420Z,14.88
2022-10-17T02:44:50.487Z,14.92
2022-10-17T02:47:33.725Z,14.95
2022-10-17T02:50:00.976Z,14.97
2022-10-17T02:52:45.942Z,14.98
2022-10-17T02:55:19.562Z,14.99
2022-10-17T02:57:54.253Z,14.96
2022-10-17T03:00:22.652Z,14.98
2022-10-17T03:02:53.660Z,14.99
2022-10-17T03:05:23.375Z,15.00
2022-10-17T03:07:50.356Z,14.97
2022-10-17T03:10:16.819Z,14.97
2022-10-17T03:12:43.374Z,15.01
2022-10-17T03:15:10.714Z,15.02
2022-10-17T03:17:37.901Z,15.01
2022-10-17T03:20:05.768Z,15.01
2022-10-17T03:22:32.696Z,14.92
2022-10-17T03:24:59.311Z,15.09
2022-10-17T03:27:25.903Z,15.13
2022-10-17T03:29:53.204Z,15.16
2022-10-17T03:32:19.640Z,15.16
2022-10-17T03:34:46.039Z,15.17
2022-10-17T03:37:12.523Z,15.20
2022-10-17T03:39:39.029Z,15.16
2022-10-17T03:42:05.455Z,15.18
2022-10-17T03:44:31.909Z,15.18
2022-10-17T03:46:58.431Z,15.12
2022-10-17T03:49:24.943Z,15.13
2022-10-17T03:51:51.628Z,15.12
2022-10-17T03:54:18.120Z,15.12
2022-10-17T03:56:44.613Z,15.09
2022-10-17T03:59:15.549Z,15.13
2022-10-17T04:01:42.919Z,15.13
2022-10-17T04:04:09.829Z,15.14
2022-10-17T04:06:37.263Z,15.16
2022-10-17T04:09:05.652Z,15.15
2022-10-17T04:11:32.888Z,15.13
2022-10-17T04:13:59.736Z,15.14
2022-10-17T04:16:26.513Z,14.98
2022-10-17T04:18:58.074Z,14.98
2022-10-17T04:21:26.093Z,15.06
2022-10-17T04:23:56.872Z,15.02
2022-10-17T04:26:23.909Z,15.02
2022-10-17T04:28:50.837Z,15.01
2022-10-17T04:31:18.735Z,15.03
2022-10-17T04:33:48.118Z,15.08
2022-10-17T04:36:17.245Z,15.14
2022-10-17T04:38:43.973Z,15.23
2022-10-17T04:41:13.381Z,15.29
2022-10-17T04:43:40.524Z,15.36
2022-10-17T04:46:10.892Z,15.43
2022-10-17T04:48:37.805Z,15.47
2022-10-17T04:51:07.417Z,15.50
2022-10-17T04:53:36.188Z,15.54
2022-10-17T04:56:09.016Z,15.58
2022-10-17T04:58:36.235Z,15.59
2022-10-17T05:01:10.654Z,15.60
2022-10-17T05:03:37.201Z,15.61
2022-10-17T05:06:09.224Z,15.64
2022-10-17T05:08:35.809Z,15.69
2022-10-17T05:11:02.891Z,15.71
2022-10-17T05:13:29.676Z,15.77
2022-10-17T05:16:01.972Z,15.80
2022-10-17T05:18:29.081Z,15.84
2022-10-17T05:20:55.957Z,15.89
2022-10-17T05:23:22.640Z,15.81
2022-10-17T05:25:54.302Z,15.94
2022-10-17T05:28:20.726Z,15.97
2022-10-17T05:30:47.164Z,16.01
2022-10-17T05:33:13.680Z,16.03
2022-10-17T05:35:40.180Z,16.07
2022-10-17T05:38:06.652Z,16.08
2022-10-17T05:40:34.023Z,16.10
2022-10-17T05:43:00.528Z,16.12
2022-10-17T05:45:26.983Z,16.13
2022-10-17T05:47:53.465Z,16.10
2022-10-17T05:50:21.976Z,16.07
2022-10-17T05:52:52.417Z,16.02
2022-10-17T05:55:18.858Z,15.99
2022-10-17T05:57:45.279Z,15.93
2022-10-17T06:00:12.457Z,15.88
2022-10-17T06:02:38.951Z,15.84
2022-10-17T06:05:05.742Z,15.80
2022-10-17T06:07:32.271Z,15.75
2022-10-17T06:09:59.042Z,15.69
2022-10-17T06:12:25.526Z,15.66
2022-10-17T06:14:51.949Z,15.63
2022-10-17T06:17:18.412Z,15.54
2022-10-17T06:19:45.233Z,15.42
2022-10-17T06:22:11.952Z,15.42
2022-10-17T06:24:38.402Z,15.44
2022-10-17T06:27:09.347Z,15.48
2022-10-17T06:29:38.598Z,15.57
2022-10-17T06:32:05.428Z,15.69
2022-10-17T06:34:31.940Z,15.77
2022-10-17T06:36:58.432Z,15.83
2022-10-17T06:39:26.914Z,15.81
2022-10-17T06:41:53.357Z,16.03
2022-10-17T06:44:19.791Z,16.12
2022-10-17T06:46:46.268Z,16.20
2022-10-17T06:49:12.729Z,16.25
2022-10-17T06:51:39.184Z,16.26
2022-10-17T06:54:05.767Z,16.46
2022-10-17T06:56:32.247Z,16.64
2022-10-17T06:58:58.737Z,16.91
2022-10-17T07:01:25.450Z,17.08
2022-10-17T07:03:52.303Z,17.05
2022-10-17T07:06:19.164Z,17.21
2022-10-17T07:08:46.001Z,17.02
2022-10-17T07:11:14.738Z,17.13
2022-10-17T07:13:41.333Z,16.90
2022-10-17T07:16:08.660Z,17.29
2022-10-17T07:18:35.096Z,17.35
2022-10-17T07:21:01.684Z,17.35
2022-10-17T07:23:28.124Z,17.44
2022-10-17T07:26:06.773Z,17.19
2022-10-17T07:28:37.733Z,17.36
2022-10-17T07:31:16.171Z,17.37
2022-10-17T07:33:43.805Z,17.39
2022-10-17T07:36:10.478Z,17.49
2022-10-17T07:38:36.949Z,17.63
2022-10-17T07:41:06.770Z,17.93
2022-10-17T07:43:33.829Z,18.15
2022-10-17T07:46:01.965Z,18.36
2022-10-17T07:48:28.636Z,18.49
2022-10-17T07:50:55.069Z,18.43
2022-10-17T07:53:21.563Z,18.38
2022-10-17T07:55:49.576Z,18.65
2022-10-17T07:58:16.485Z,18.68
2022-10-17T08:00:43.382Z,18.92
2022-10-17T08:03:10.896Z,19.25
2022-10-17T08:05:37.321Z,19.29
2022-10-17T08:08:03.877Z,19.65
2022-10-17T08:10:30.342Z,19.51
2022-10-17T08:12:58.347Z,19.68
2022-10-17T08:15:29.379Z,19.64
2022-10-17T08:17:59.085Z,19.99
2022-10-17T08:20:25.587Z,19.88
2022-10-17T08:22:55.494Z,20.03
2022-10-17T08:25:22.970Z,20.16
2022-10-17T08:27:49.865Z,20.30
2022-10-17T08:30:16.888Z,20.40
2022-10-17T08:32:43.961Z,20.38
2022-10-17T08:35:11.055Z,20.56
2022-10-17T08:37:37.499Z,20.65
2022-10-17T08:40:04.882Z,20.74
2022-10-17T08:43:04.201Z,20.58
2022-10-17T08:45:36.721Z,20.17
2022-10-17T08:48:09.782Z,20.01
2022-10-17T08:50:45.360Z,20.29
2022-10-17T08:53:33.196Z,20.30
2022-10-17T08:56:09.341Z,20.47
2022-10-17T08:58:38.509Z,20.62
2022-10-17T09:01:13.661Z,20.59
2022-10-17T09:03:58.319Z,20.59
2022-10-17T09:06:33.103Z,20.63
2022-10-17T09:09:14.598Z,20.60
2022-10-17T09:12:10.062Z,20.73
2022-10-17T09:15:11.538Z,20.79
2022-10-17T09:18:02.278Z,20.94
2022-10-17T09:20:42.654Z,20.95
2022-10-17T09:23:17.368Z,20.90
2022-10-17T09:25:54.142Z,20.59
2022-10-17T09:28:28.088Z,20.66
2022-10-17T09:30:54.472Z,20.67
2022-10-17T09:33:35.045Z,20.72
2022-10-17T09:36:11.648Z,20.62
2022-10-17T09:38:41.724Z,20.66
2022-10-17T09:41:32.379Z,20.64
2022-10-17T09:44:18.554Z,20.66
2022-10-17T09:46:56.290Z,20.67
2022-10-17T09:49:44.238Z,20.67
2022-10-17T09:52:35.154Z,20.60
2022-10-17T09:55:32.282Z,20.50
2022-10-17T09:58:01.320Z,20.33
2022-10-17T10:00:38.003Z,20.42
2022-10-17T10:03:10.380Z,20.39
2022-10-17T10:05:36.944Z,20.38
2022-10-17T10:08:12.613Z,20.33
2022-10-17T10:10:43.078Z,20.36
2022-10-17T10:13:20.310Z,20.33
2022-10-17T10:15:49.431Z,20.33
2022-10-17T10:18:24.767Z,20.28
2022-10-17T10:21:19.978Z,20.31
2022-10-17T10:24:04.712Z,20.26
2022-10-17T10:26:35.365Z,20.19
2022-10-17T10:29:06.690Z,20.16
2022-10-17T10:31:40.022Z,20.08
2022-10-17T10:34:19.310Z,20.16
2022-10-17T10:36:50.961Z,20.15
2022-10-17T10:39:57.854Z,20.22
2022-10-17T10:42:40.752Z,20.28
2022-10-17T10:45:42.896Z,20.32
2022-10-17T10:48:25.376Z,20.36
2022-10-17T10:51:04.419Z,20.40
2022-10-17T10:53:55.419Z,20.39
2022-10-17T10:56:48.708Z,20.36
2022-10-17T10:59:29.279Z,20.12
2022-10-17T11:02:11.668Z,20.22
2022-10-17T11:05:03.922Z,20.24
2022-10-17T11:07:39.345Z,20.22
2022-10-17T11:10:22.054Z,20.30
2022-10-17T11:12:55.160Z,20.35
2022-10-17T11:15:30.366Z,20.39
2022-10-17T11:18:07.221Z,20.41
2022-10-17T11:20:57.690Z,20.33
2022-10-17T11:23:48.728Z,20.31
2022-10-17T11:26:38.375Z,20.37
2022-10-17T11:29:09.087Z,20.39
2022-10-17T11:31:40.354Z,20.44
2022-10-17T11:34:21.400Z,20.46
2022-10-17T11:36:57.040Z,20.48
2022-10-17T11:39:35.187Z,20.37
2022-10-17T11:42:10.739Z,20.35
2022-10-17T11:44:42.478Z,20.35
2022-10-17T11:47:29.949Z,20.29
2022-10-17T11:53:34.579Z,20.24
2022-10-17T11:56:02.028Z,20.32
2022-10-17T11:58:57.553Z,20.32
2022-10-17T12:01:33.061Z,20.35
2022-10-17T12:04:21.287Z,20.26
2022-10-17T12:07:25.562Z,20.25
2022-10-17T12:10:16.917Z,20.23
2022-10-17T12:12:43.549Z,20.24
2022-10-17T12:15:12.685Z,20.27
2022-10-17T12:17:46.902Z,20.19
2022-10-17T12:20:25.982Z,20.20
2022-10-17T12:23:00.936Z,20.21
2022-10-17T12:25:32.007Z,20.13
2022-10-17T12:28:10.853Z,20.20
2022-10-17T12:30:49.074Z,20.22
2022-10-17T12:33:26.861Z,20.20
2022-10-17T12:36:21.255Z,20.21
2022-10-17T12:38:50.309Z,20.19
2022-10-17T12:41:17.468Z,20.15
2022-10-17T12:46:40.973Z,20.13
2022-10-17T12:49:23.942Z,20.12
2022-10-17T12:52:31.971Z,20.13
2022-10-17T12:55:18.071Z,20.12
2022-10-17T12:58:03.894Z,20.12
2022-10-17T13:01:05.424Z,20.12
2022-10-17T13:03:41.799Z,20.10
2022-10-17T13:06:21.029Z,20.13
2022-10-17T13:08:54.509Z,20.09
2022-10-17T13:11:26.238Z,20.16
2022-10-17T13:13:54.757Z,20.13
2022-10-17T13:16:34.575Z,20.18
2022-10-17T13:19:03.398Z,20.22
2022-10-17T13:21:30.178Z,19.87
2022-10-17T13:23:56.676Z,20.22
2022-10-17T13:26:28.439Z,20.20
2022-10-17T13:29:04.147Z,20.18
2022-10-17T13:31:32.625Z,20.19
2022-10-17T13:34:01.725Z,20.18
2022-10-17T13:36:30.327Z,20.23
2022-10-17T13:39:00.361Z,20.21
2022-10-17T13:41:35.907Z,20.22
2022-10-17T13:44:04.234Z,20.21
2022-10-17T13:46:38.462Z,20.22
2022-10-17T13:49:25.803Z,20.25
2022-10-17T13:51:56.715Z,20.25
2022-10-17T13:54:34.052Z,20.26
2022-10-17T13:57:02.115Z,20.22
2022-10-17T13:59:36.966Z,20.28
2022-10-17T14:02:03.722Z,20.29
2022-10-17T14:04:39.971Z,20.29
2022-10-17T14:08:10.087Z,20.34
2022-10-17T14:10:36.910Z,20.33
2022-10-17T14:13:08.088Z,20.27
2022-10-17T14:15:36.655Z,20.34
2022-10-17T14:18:08.042Z,20.39
2022-10-17T14:23:34.144Z,20.36
2022-10-17T14:26:15.384Z,20.38
2022-10-17T14:28:45.215Z,20.36
2022-10-17T14:31:25.570Z,20.26
2022-10-17T14:33:54.143Z,20.36
2022-10-17T14:36:30.929Z,20.34
2022-10-17T14:38:57.849Z,20.33
2022-10-17T14:41:44.373Z,20.35
2022-10-17T14:44:31.994Z,20.27
2022-10-17T14:47:18.240Z,20.28
2022-10-17T14:50:11.968Z,20.21
2022-10-17T14:52:39.809Z,20.16
2022-10-17T14:55:24.837Z,20.18
2022-10-17T14:57:51.819Z,20.16
2022-10-17T15:00:20.403Z,20.16
2022-10-17T15:02:48.111Z,20.20
2022-10-17T15:05:15.915Z,20.17
2022-10-17T15:07:43.576Z,20.13
2022-10-17T15:10:27.714Z,20.13
2022-10-17T15:12:59.138Z,20.09
2022-10-17T15:15:28.048Z,20.09
2022-10-17T15:17:54.852Z,20.04
2022-10-17T15:20:25.975Z,20.01
2022-10-17T15:22:53.651Z,20.00
2022-10-17T15:25:20.282Z,19.94
2022-10-17T15:27:46.821Z,19.86
2022-10-17T15:30:23.677Z,19.78
2022-10-17T15:32:51.191Z,19.71
2022-10-17T15:35:18.451Z,19.65
2022-10-17T15:37:46.803Z,19.60
2022-10-17T15:40:28.817Z,19.55
2022-10-17T15:42:59.125Z,19.55
2022-10-17T15:45:25.528Z,19.46
2022-10-17T15:48:05.864Z,19.44
2022-10-17T15:50:32.518Z,19.36
2022-10-17T15:52:59.531Z,19.26
2022-10-17T15:55:26.186Z,19.18
2022-10-17T15:57:52.733Z,19.12
2022-10-17T16:00:22.493Z,18.88
2022-10-17T16:02:49.856Z,19.00
2022-10-17T16:05:19.708Z,18.96
2022-10-17T16:07:46.759Z,18.89
2022-10-17T16:10:14.392Z,18.79
2022-10-17T16:12:43.902Z,18.59
2022-10-17T16:15:22.932Z,18.62
2022-10-17T16:17:52.820Z,18.48
2022-10-17T16:20:19.795Z,18.34
2022-10-17T16:22:46.917Z,18.29
2022-10-17T16:25:28.178Z,18.42
2022-10-17T16:27:56.908Z,18.39
2022-10-17T16:30:25.978Z,18.37
2022-10-17T16:32:53.617Z,18.34
2022-10-17T16:35:25.830Z,18.28
2022-10-17T16:37:52.715Z,18.27
2022-10-17T16:40:19.687Z,18.25
2022-10-17T16:42:46.462Z,18.18
2022-10-17T16:45:21.683Z,18.16
2022-10-17T16:47:48.669Z,17.72
2022-10-17T16:50:15.823Z,17.98
2022-10-17T16:52:42.587Z,17.89
2022-10-17T16:55:10.051Z,17.86
2022-10-17T16:57:36.687Z,17.82
2022-10-17T17:00:04.893Z,17.83
2022-10-17T17:02:31.681Z,17.86
2022-10-17T17:04:58.393Z,17.85
2022-10-17T17:07:24.908Z,17.85
2022-10-17T17:09:51.549Z,17.87
2022-10-17T17:12:18.007Z,17.83
2022-10-17T17:14:44.546Z,17.73
2022-10-17T17:17:19.456Z,17.72
2022-10-17T17:19:57.095Z,17.67
2022-10-17T17:22:23.639Z,17.69
2022-10-17T17:27:21.575Z,17.69
2022-10-17T17:29:48.025Z,17.68
2022-10-17T17:32:14.725Z,17.70
2022-10-17T17:34:41.129Z,17.70
2022-10-17T17:37:07.594Z,17.69
2022-10-17T17:39:34.098Z,17.67
2022-10-17T17:42:00.574Z,17.66
2022-10-17T17:44:27.080Z,17.66
2022-10-17T17:46:53.647Z,17.65
2022-10-17T17:49:21.580Z,17.63
2022-10-17T17:51:48.107Z,17.62
2022-10-17T17:54:15.214Z,17.59
2022-10-17T17:56:41.955Z,17.49
2022-10-17T17:59:11.604Z,17.36
2022-10-17T18:01:38.996Z,17.29
2022-10-17T18:04:08.614Z,17.27
2022-10-17T18:06:36.697Z,17.22
2022-10-17T18:09:03.529Z,17.18
2022-10-17T18:11:30.260Z,17.07
2022-10-17T18:13:59.427Z,17.16
2022-10-17T18:16:27.207Z,17.13
2022-10-17T18:18:54.132Z,17.11
2022-10-17T18:21:20.634Z,17.13
2022-10-17T18:23:48.612Z,17.03
2022-10-17T18:26:15.502Z,17.10
2022-10-17T18:28:43.270Z,17.11
2022-10-17T18:31:15.497Z,17.09
2022-10-17T18:33:44.524Z,17.02
2022-10-17T18:36:13.839Z,16.96
2022-10-17T18:38:40.731Z,16.92
2022-10-17T18:41:10.173Z,16.88
2022-10-17T18:43:38.083Z,16.79
2022-10-17T18:46:16.615Z,16.72
2022-10-17T18:48:44.707Z,16.63
2022-10-17T18:51:12.629Z,16.64
2022-10-17T18:53:43.507Z,15.93
2022-10-17T18:56:11.065Z,16.55
2022-10-17T18:58:38.535Z,16.54
2022-10-17T19:01:08.073Z,16.54
2022-10-17T19:03:34.936Z,16.53
2022-10-17T19:06:09.534Z,16.53
2022-10-17T19:08:37.252Z,16.52
2022-10-17T19:11:08.515Z,16.36
2022-10-17T19:13:35.933Z,16.42
2022-10-17T19:16:07.744Z,16.36
2022-10-17T19:18:35.134Z,16.30
2022-10-17T19:21:06.278Z,16.25
2022-10-17T19:23:35.782Z,16.17
2022-10-17T19:26:05.532Z,16.10
2022-10-17T19:28:32.816Z,16.07
2022-10-17T19:30:59.602Z,16.04
2022-10-17T19:33:26.090Z,16.02
2022-10-17T19:36:04.834Z,16.05
2022-10-17T19:38:31.794Z,16.03
2022-10-17T19:41:01.210Z,15.96
2022-10-17T19:43:28.310Z,15.95
2022-10-17T19:46:03.175Z,15.93
2022-10-17T19:48:32.679Z,15.69
2022-10-17T19:50:59.351Z,15.88
2022-10-17T19:53:29.616Z,15.88
2022-10-17T19:55:57.512Z,15.77
2022-10-17T19:58:25.017Z,15.84
2022-10-17T20:00:56.612Z,15.85
2022-10-17T20:03:24.790Z,15.80
2022-10-17T20:05:52.242Z,15.82
2022-10-17T20:08:19.399Z,15.79
2022-10-17T20:10:46.320Z,15.82
2022-10-17T20:13:13.815Z,15.78
2022-10-17T20:15:40.277Z,15.75
2022-10-17T20:18:07.697Z,15.75
2022-10-17T20:20:35.529Z,15.73
2022-10-17T20:23:02.360Z,15.68
2022-10-17T20:25:28.863Z,15.72
2022-10-17T20:27:55.372Z,15.69
2022-10-17T20:30:21.846Z,15.66
2022-10-17T20:32:48.290Z,15.60
2022-10-17T20:35:14.773Z,15.71
2022-10-17T20:37:42.690Z,15.74
2022-10-17T20:40:33.744Z,15.78
2022-10-17T20:42:56.452Z,15.81
2022-10-17T20:45:37.361Z,15.83
2022-10-17T20:48:14.065Z,15.80
2022-10-17T20:50:41.398Z,15.77
2022-10-17T20:53:34.927Z,15.76
2022-10-17T20:56:04.425Z,15.75
2022-10-17T20:58:30.935Z,15.71
2022-10-17T21:00:57.362Z,15.76
2022-10-17T21:03:24.331Z,15.73
2022-10-17T21:05:50.756Z,15.80
2022-10-17T21:08:17.203Z,15.81
2022-10-17T21:10:43.650Z,15.48
2022-10-17T21:13:10.051Z,15.73
2022-10-17T21:15:36.439Z,15.68
2022-10-17T21:18:02.950Z,15.62
2022-10-17T21:20:29.376Z,15.55
2022-10-17T21:22:57.276Z,15.54
2022-10-17T21:25:23.830Z,15.51
2022-10-17T21:27:52.630Z,15.50
2022-10-17T21:30:20.906Z,15.41
2022-10-17T21:32:51.526Z,15.45
2022-10-17T21:35:18.532Z,15.47
2022-10-17T21:37:44.948Z,15.46
2022-10-17T21:40:12.150Z,15.43
2022-10-17T21:42:38.623Z,15.45
2022-10-17T21:45:10.768Z,15.46
2022-10-17T21:47:45.611Z,15.45
2022-10-17T21:50:21.586Z,15.43
2022-10-17T21:52:47.989Z,15.41
2022-10-17T21:55:14.581Z,15.32
2022-10-17T21:57:41.010Z,15.35
2022-10-17T22:00:08.222Z,15.34
2022-10-17T22:02:34.634Z,15.33
2022-10-17T22:05:01.087Z,15.29
2022-10-17T22:07:27.522Z,15.29
2022-10-17T22:09:53.938Z,15.25
2022-10-17T22:12:20.360Z,15.22
2022-10-17T22:14:46.787Z,15.21
2022-10-17T22:17:13.273Z,15.17
2022-10-17T22:19:39.749Z,15.15
2022-10-17T22:22:06.178Z,15.02
2022-10-17T22:24:32.787Z,15.16
2022-10-17T22:26:59.273Z,15.20
2022-10-17T22:29:25.752Z,15.24
2022-10-17T22:31:52.161Z,15.24
2022-10-17T22:34:18.956Z,15.24
2022-10-17T22:36:47.608Z,15.28
2022-10-17T22:39:14.459Z,15.31
2022-10-17T22:41:40.897Z,15.33
2022-10-17T22:44:07.482Z,15.35
2022-10-17T22:46:33.929Z,15.06
2022-10-17T22:49:00.539Z,15.44
2022-10-17T22:51:27.023Z,15.48
2022-10-17T22:53:53.470Z,15.52
2022-10-17T22:56:21.501Z,15.55
2022-10-17T22:58:48.286Z,15.57
2022-10-17T23:01:18.247Z,15.58
2022-10-17T23:03:46.121Z,15.58
2022-10-17T23:06:13.128Z,15.41
2022-10-17T23:08:40.693Z,15.60
2022-10-17T23:11:08.088Z,15.62
2022-10-17T23:13:35.530Z,15.64
2022-10-17T23:16:02.066Z,15.60
2022-10-17T23:18:28.513Z,15.64
2022-10-17T23:20:55.534Z,15.64
2022-10-17T23:23:22.702Z,15.64
2022-10-17T23:25:49.761Z,15.64
2022-10-17T23:28:16.749Z,15.61
2022-10-17T23:30:43.687Z,15.41
2022-10-17T23:33:11.968Z,15.60
2022-10-17T23:35:38.877Z,15.63
2022-10-17T23:38:05.317Z,15.63
2022-10-17T23:40:31.797Z,15.64
2022-10-17T23:42:58.302Z,15.62
2022-10-17T23:45:24.767Z,15.56
2022-10-17T23:47:51.214Z,15.51
2022-10-17T23:50:18.094Z,15.48
2022-10-17T23:52:44.632Z,15.46
2022-10-17T23:55:11.267Z,15.48
2022-10-17T23:57:37.773Z,15.29
